Flight Track Log - Related Links

Times and Time Zones

All times are in EDT time to prevent confusion due to time zone crossing. See the CUB191 flight status page for this flight to view local times or setup timezone preferences in your user account.

Time Position Orientation Groundspeed Altitude Reporting Facility
EDT Latitude Longitude Course Direction KTS MPH feet Rate Location/Type
Sun 06:47:47 AM 43.6760 -79.6360 288° West 3 3  Level FlightAware ADS-B
Sun 06:55:02 AM 43.6750 -79.6420 257° West 6 7 19 Level FlightAware ADS-B
Sun 06:56:12 AM 43.6740 -79.6420 180° South 2 2 35 Level FlightAware ADS-B
Sun 06:56:32 AM 43.6740 -79.6430 270° West 2 2 40 Level FlightAware ADS-B
Sun 07:03:42 AM 43.6570 -79.6690 227° Southwest 165 190 300 196 Climbing FlightAware ADS-B
Sun 07:04:12 AM 43.6430 -79.6920 230° Southwest 166 191 1,500 2,400 Climbing FlightAware ADS-B
Sun 07:04:37 AM 43.6300 -79.7140 231° Southwest 166 191 2,500 1,964 Climbing FlightAware ADS-B
Sun 07:05:07 AM 43.6150 -79.7390 230° Southwest 176 203 3,300 1,200 Climbing FlightAware ADS-B
Sun 07:05:37 AM 43.6000 -79.7680 234° Southwest 212 244 3,700 982 Climbing FlightAware ADS-B
Sun 07:06:02 AM 43.5830 -79.7990 233° Southwest 252 290 4,200 1,855 Climbing FlightAware ADS-B
Sun 07:06:32 AM 43.5610 -79.8380 232° Southwest 268 308 5,400 2,267 Climbing FlightAware ADS-B
Sun 07:06:47 AM 43.5510 -79.8560 233° Southwest 275 316 5,900 2,850 Climbing FlightAware ADS-B
Sun 07:07:12 AM 43.5300 -79.8880 228° Southwest 276 318 7,300 3,000 Climbing FlightAware ADS-B
Sun 07:07:37 AM 43.5030 -79.9200 221° Southwest 282 325 8,400 2,836 Climbing FlightAware ADS-B
Sun 07:08:07 AM 43.4660 -79.9650 221° Southwest 301 346 9,900 1,760 Climbing FlightAware ADS-B
Sun 07:08:52 AM 43.4160 -80.0250 221° Southwest 352 405 10,600 1,271 Climbing FlightAware ADS-B
Sun 07:09:32 AM 43.3630 -80.0890 221° Southwest 376 433 11,700 1,950 Climbing FlightAware ADS-B
Sun 07:10:12 AM 43.3120 -80.1500 221° Southwest 384 442 13,200 2,400 Climbing FlightAware ADS-B
Sun 07:10:57 AM 43.2510 -80.2240 221° Southwest 386 444 15,100 2,329 Climbing FlightAware ADS-B
Sun 07:11:37 AM 43.1960 -80.2890 221° Southwest 393 452 16,500 1,976 Climbing FlightAware ADS-B
Sun 07:12:22 AM 43.1340 -80.3630 221° Southwest 399 459 17,900 1,976 Climbing FlightAware ADS-B
Sun 07:13:02 AM 43.0790 -80.4290 221° Southwest 401 461 19,300 1,950 Climbing FlightAware ADS-B
Sun 07:13:42 AM 43.0220 -80.4960 221° Southwest 405 466 20,500 1,765 Climbing FlightAware ADS-B
Sun 07:14:27 AM 42.9600 -80.5700 221° Southwest 408 470 21,800 1,765 Climbing FlightAware ADS-B
Sun 07:15:07 AM 42.9000 -80.6400 221° Southwest 409 471 23,000 1,575 Climbing FlightAware ADS-B
Sun 07:15:47 AM 42.8450 -80.7050 221° Southwest 411 473 23,900 1,482 Climbing FlightAware ADS-B
Sun 07:16:32 AM 42.7790 -80.7840 221° Southwest 412 474 25,100 1,412 Climbing FlightAware ADS-B
Sun 07:17:12 AM 42.7210 -80.8510 220° Southwest 414 476 25,900 1,129 Climbing FlightAware ADS-B
Sun 07:17:57 AM 42.6550 -80.9220 218° Southwest 421 484 26,700 988 Climbing FlightAware ADS-B
Sun 07:18:37 AM 42.5960 -80.9800 216° Southwest 424 488 27,300 900 Climbing FlightAware ADS-B
Sun 07:19:17 AM 42.5360 -81.0380 215° Southwest 426 490 27,900 1,050 Climbing FlightAware ADS-B
Sun 07:19:57 AM 42.4720 -81.0990 215° Southwest 424 488 28,700 1,129 Climbing FlightAware ADS-B
Sun 07:20:42 AM 42.4010 -81.1670 215° Southwest 422 486 29,500 1,133 Climbing FlightAware ADS-B
Sun 07:21:27 AM 42.3290 -81.2360 215° Southwest 419 482 30,400 1,040 Climbing FlightAware ADS-B
Sun 07:21:57 AM 42.2890 -81.2740 215° Southwest 420 483 30,800 1,133 Climbing FlightAware ADS-B
Sun 07:22:57 AM 42.1900 -81.3680 215° Southwest 411 473 32,100 1,145 Climbing FlightAware ADS-B
Sun 07:23:47 AM 42.1060 -81.4480 215° Southwest 409 471 32,900 1,067 Climbing FlightAware ADS-B
Sun 07:24:27 AM 42.0400 -81.5100 215° Southwest 400 460 33,700 776 Climbing FlightAware ADS-B
Sun 07:25:12 AM 41.9700 -81.5770 215° Southwest 403 464 34,000 212 Climbing FlightAware ADS-B
Sun 07:25:52 AM 41.9110 -81.6320 215° Southwest 399 459 34,000  Level FlightAware ADS-B
Sun 07:26:32 AM 41.8500 -81.6890 215° Southwest 400 460 34,000  Level FlightAware ADS-B
Sun 07:27:17 AM 41.7800 -81.7540 215° Southwest 398 458 34,000  Level FlightAware ADS-B
Sun 07:27:57 AM 41.7190 -81.8110 215° Southwest 397 457 34,000  Level FlightAware ADS-B
Sun 07:28:42 AM 41.6530 -81.8730 215° Southwest 397 457 34,000 -71 Level FlightAware ADS-B
Sun 07:29:22 AM 41.5940 -81.9270 214° Southwest 398 458 33,900  Descending FlightAware ADS-B
Sun 07:30:07 AM 41.5260 -81.9910 215° Southwest 399 459 34,000 71 Climbing FlightAware ADS-B
Sun 07:30:47 AM 41.4630 -82.0490 215° Southwest 400 460 34,000  Level FlightAware ADS-B
Sun 07:31:27 AM 41.4010 -82.1050 214° Southwest 403 464 34,000  Level FlightAware ADS-B
Sun 07:32:12 AM 41.3290 -82.1580 209° Southwest 407 468 34,000  Level FlightAware ADS-B
Sun 07:32:52 AM 41.2590 -82.1930 201° Southwest 410 472 34,000  Level FlightAware ADS-B
Sun 07:33:32 AM 41.1860 -82.2200 196° South 408 470 34,000 -71 Level FlightAware ADS-B
Sun 07:34:17 AM 41.1030 -82.2490 195° South 407 468 33,900  Descending FlightAware ADS-B
Sun 07:34:57 AM 41.0320 -82.2750 195° South 406 467 34,000 71 Climbing FlightAware ADS-B
Sun 07:35:42 AM 40.9470 -82.3050 195° South 417 480 34,000  Level FlightAware ADS-B
Sun 07:36:22 AM 40.8740 -82.3310 195° South 422 486 34,000  Level FlightAware ADS-B
Sun 07:37:02 AM 40.7980 -82.3570 195° South 417 480 34,000  Level FlightAware ADS-B
Sun 07:37:47 AM 40.7130 -82.3870 195° South 417 480 34,000 -71 Level FlightAware ADS-B
Sun 07:38:27 AM 40.6410 -82.4120 195° South 417 480 33,900 -71 Descending FlightAware ADS-B
Sun 07:39:12 AM 40.5540 -82.4430 195° South 419 482 33,900  Level FlightAware ADS-B
Sun 07:39:52 AM 40.4790 -82.4690 195° South 420 483 33,900 75 Level FlightAware ADS-B
Sun 07:40:32 AM 40.4050 -82.4940 194° South 420 483 34,000 71 Climbing FlightAware ADS-B
Sun 07:41:17 AM 40.3190 -82.5240 195° South 419 482 34,000  Level FlightAware ADS-B
Sun 07:41:57 AM 40.2470 -82.5500 195° South 418 481 34,000  Level FlightAware ADS-B
Sun 07:42:42 AM 40.1620 -82.5780 194° South 420 483 34,000  Level FlightAware ADS-B
Sun 07:43:22 AM 40.0850 -82.5910 187° South 427 491 34,000 -71 Level FlightAware ADS-B
Sun 07:44:07 AM 39.9970 -82.5980 183° South 428 493 33,900  Descending FlightAware ADS-B
Sun 07:44:47 AM 39.9140 -82.6030 183° South 429 494 34,000 75 Climbing FlightAware ADS-B
Sun 07:45:27 AM 39.8360 -82.6080 183° South 429 494 34,000  Level FlightAware ADS-B
Sun 07:46:12 AM 39.7480 -82.6140 183° South 430 495 34,000  Level FlightAware ADS-B
Sun 07:46:52 AM 39.6660 -82.6200 183° South 429 494 34,000  Level FlightAware ADS-B
Sun 07:47:32 AM 39.5880 -82.6250 183° South 430 495 34,000  Level FlightAware ADS-B
Sun 07:48:17 AM 39.4970 -82.6310 183° South 429 494 34,000  Level FlightAware ADS-B
Sun 07:48:57 AM 39.4200 -82.6360 183° South 428 493 34,000  Level FlightAware ADS-B
Sun 07:49:32 AM 39.3490 -82.6400 182° South 427 491 34,000  Level FlightAware ADS-B
Sun 07:50:07 AM 39.2790 -82.6450 183° South 426 490 34,000  Level FlightAware ADS-B
Sun 07:50:47 AM 39.2010 -82.6500 183° South 425 489 34,000  Level FlightAware ADS-B
Sun 07:51:37 AM 39.1050 -82.6560 183° South 425 489 34,000  Level FlightAware ADS-B
Sun 07:52:27 AM 39.0060 -82.6630 183° South 425 489 34,000  Level FlightAware ADS-B
Sun 07:53:02 AM 38.9350 -82.6680 183° South 425 489 34,000  Level FlightAware ADS-B
Sun 07:53:32 AM 38.8790 -82.6710 182° South 425 489 34,000  Level FlightAware ADS-B
Sun 07:54:02 AM 38.8200 -82.6750 183° South 426 490 34,000  Level FlightAware ADS-B
Sun 07:54:32 AM 38.7610 -82.6790 183° South 426 490 34,000  Level FlightAware ADS-B
Sun 07:55:07 AM 38.6900 -82.6840 183° South 427 491 34,000  Level FlightAware ADS-B
Sun 07:55:52 AM 38.6020 -82.6890 183° South 428 493 34,000  Level FlightAware ADS-B
Sun 07:56:37 AM 38.5110 -82.6940 182° South 428 493 34,000  Level FlightAware ADS-B
Sun 07:57:17 AM 38.4320 -82.6990 183° South 429 494 34,000  Level FlightAware ADS-B
Sun 07:57:57 AM 38.3530 -82.7030 182° South 428 493 34,000  Level FlightAware ADS-B
Sun 07:58:52 AM 38.2470 -82.7080 182° South 425 489 34,000  Level FlightAware ADS-B
Sun 07:59:32 AM 38.1670 -82.7120 182° South 425 489 34,000 -67 Level FlightAware ADS-B
Sun 08:00:22 AM 38.0680 -82.7200 184° South 424 488 33,900 -109 Descending FlightAware ADS-B
Sun 08:00:27 AM 38.0549 -82.7216 185° South 424 488 33,900  Level FlightAware ADS-B
Sun 08:00:57 AM 37.9957 -82.7278 185° South 425 489 33,900 97 Level FlightAware ADS-B
Sun 08:01:29 AM 37.9339 -82.7339 184° South 426 490 34,000 97 Climbing FlightAware ADS-B
Sun 08:01:59 AM 37.8750 -82.7401 185° South 427 491 34,000  Level FlightAware ADS-B
Sun 08:02:29 AM 37.8159 -82.7461 185° South 425 489 34,000  Level FlightAware ADS-B
Sun 08:03:11 AM 37.7334 -82.7550 185° South 425 489 34,000  Level FlightAware ADS-B
Sun 08:03:41 AM 37.6762 -82.7682 190° South 417 480 34,000  Level FlightAware ADS-B
Sun 08:04:11 AM 37.6209 -82.7887 196° South 414 476 34,000 -122 Level FlightAware ADS-B
Sun 08:04:30 AM 37.5878 -82.8049 201° Southwest 412 474 33,900 -207 Descending FlightAware ADS-B
Sun 08:04:40 AM 37.5693 -82.8151 204° Southwest 411 473 33,900  Level FlightAware ADS-B
Sun 08:05:10 AM 37.5186 -82.8477 207° Southwest 410 472 33,900 73 Level FlightAware ADS-B
Sun 08:06:02 AM 37.4321 -82.9042 207° Southwest 411 473 34,000 71 Climbing FlightAware ADS-B
Sun 08:06:34 AM 37.3784 -82.9396 208° Southwest 409 471 34,000  Level FlightAware ADS-B
Sun 08:07:04 AM 37.3269 -82.9734 208° Southwest 408 470 34,000  Level FlightAware ADS-B
Sun 08:07:38 AM 37.2716 -83.0098 208° Southwest 407 468 34,000 -90 Level FlightAware ADS-B
Sun 08:08:11 AM 37.2165 -83.0458 207° Southwest 408 470 33,900 -95 Descending FlightAware ADS-B
Sun 08:08:41 AM 37.1659 -83.0790 208° Southwest 410 472 33,900 100 Level FlightAware ADS-B
Sun 08:09:11 AM 37.1152 -83.1121 208° Southwest 409 471 34,000 98 Climbing FlightAware ADS-B
Sun 08:09:42 AM 37.0630 -83.1463 208° Southwest 407 468 34,000  Level FlightAware ADS-B
Sun 08:10:13 AM 37.0110 -83.1802 208° Southwest 406 467 34,000  Level FlightAware ADS-B
Sun 08:10:44 AM 36.9604 -83.2132 208° Southwest 405 466 34,000  Level FlightAware ADS-B
Sun 08:11:14 AM 36.9101 -83.2458 207° Southwest 403 464 34,000  Level FlightAware ADS-B
Sun 08:11:45 AM 36.8588 -83.2791 207° Southwest 403 464 34,000  Level FlightAware ADS-B
Sun 08:12:16 AM 36.8083 -83.3119 207° Southwest 402 463 34,000  Level FlightAware ADS-B
Sun 08:12:46 AM 36.7582 -83.3443 207° Southwest 400 460 34,000  Level FlightAware ADS-B
Sun 08:13:17 AM 36.7081 -83.3768 207° Southwest 400 460 34,000 -97 Level FlightAware ADS-B
Sun 08:13:48 AM 36.6560 -83.4103 207° Southwest 401 461 33,900 -97 Descending FlightAware ADS-B
Sun 08:14:19 AM 36.6059 -83.4425 207° Southwest 403 464 33,900  Level FlightAware ADS-B
Sun 08:14:49 AM 36.5556 -83.4750 207° Southwest 404 465 33,900 98 Level FlightAware ADS-B
Sun 08:15:20 AM 36.5048 -83.5076 207° Southwest 405 466 34,000 98 Climbing FlightAware ADS-B
Sun 08:15:50 AM 36.4549 -83.5397 207° Southwest 406 467 34,000  Level FlightAware ADS-B
Sun 08:16:21 AM 36.4020 -83.5735 207° Southwest 407 468 34,000  Level FlightAware ADS-B
Sun 08:16:51 AM 36.3518 -83.6054 207° Southwest 407 468 34,000  Level FlightAware ADS-B
Sun 08:17:21 AM 36.3016 -83.6375 207° Southwest 409 471 34,000  Level FlightAware ADS-B
Sun 08:17:52 AM 36.2500 -83.6704 207° Southwest 409 471 34,000  Level FlightAware ADS-B
Sun 08:18:22 AM 36.1991 -83.7028 207° Southwest 411 473 34,000  Level FlightAware ADS-B
Sun 08:18:53 AM 36.1467 -83.7361 207° Southwest 411 473 34,000  Level FlightAware ADS-B
Sun 08:19:25 AM 36.0935 -83.7699 207° Southwest 412 474 34,000  Level FlightAware ADS-B
Sun 08:19:55 AM 36.0423 -83.8023 207° Southwest 413 475 34,000  Level FlightAware ADS-B
Sun 08:20:25 AM 35.9910 -83.8348 207° Southwest 412 474 34,000  Level FlightAware ADS-B
Sun 08:20:55 AM 35.9398 -83.8667 207° Southwest 412 474 34,000  Level FlightAware ADS-B
Sun 08:21:26 AM 35.8842 -83.8947 202° Southwest 416 479 34,000  Level FlightAware ADS-B
Sun 08:21:47 AM 35.8466 -83.9095 198° South 419 482 34,000  Level FlightAware ADS-B
Sun 08:21:56 AM 35.8305 -83.9148 195° South 420 483 34,000  Level FlightAware ADS-B
Sun 08:22:27 AM 35.7703 -83.9308 192° South 422 486 34,000 -97 Level FlightAware ADS-B
Sun 08:22:58 AM 35.7117 -83.9455 192° South 423 487 33,900  Descending FlightAware ADS-B
Sun 08:23:28 AM 35.6541 -83.9601 192° South 420 483 34,000 94 Climbing FlightAware ADS-B
Sun 08:24:02 AM 35.5892 -83.9761 191° South 420 483 34,000  Level FlightAware ADS-B
Sun 08:24:33 AM 35.5301 -83.9905 191° South 420 483 34,000 -98 Level FlightAware ADS-B
Sun 08:25:03 AM 35.4722 -84.0047 191° South 420 483 33,900  Descending FlightAware ADS-B
Sun 08:25:37 AM 35.4084 -84.0205 191° South 418 481 34,000 94 Climbing FlightAware ADS-B
Sun 08:26:07 AM 35.3518 -84.0342 191° South 413 475 34,000  Level FlightAware ADS-B
Sun 08:26:37 AM 35.2956 -84.0480 191° South 409 471 34,000  Level FlightAware ADS-B
Sun 08:27:08 AM 35.2383 -84.0619 191° South 407 468 34,000  Level FlightAware ADS-B
Sun 08:27:50 AM 35.1609 -84.0808 191° South 408 470 34,000  Level FlightAware ADS-B
Sun 08:28:27 AM 35.1080 -84.0940 192° South 409 471 34,000 240 Level FlightAware ADS-B
Sun 08:28:40 AM 35.0673 -84.1036 191° South 411 473 34,200 545 Climbing FlightAware ADS-B
Sun 08:29:11 AM 35.0097 -84.1177 191° South 415 478 34,400 338 Climbing FlightAware ADS-B
Sun 08:29:51 AM 34.9346 -84.1359 191° South 418 481 34,600 429 Climbing FlightAware ADS-B
Sun 08:30:21 AM 34.8759 -84.1500 191° South 419 482 34,900 400 Climbing FlightAware ADS-B
Sun 08:30:51 AM 34.8189 -84.1637 191° South 417 480 35,000 98 Climbing FlightAware ADS-B
Sun 08:31:22 AM 34.7621 -84.1772 191° South 417 480 35,000  Level FlightAware ADS-B
Sun 08:31:52 AM 34.7044 -84.1911 191° South 417 480 35,000  Level FlightAware ADS-B
Sun 08:32:23 AM 34.6454 -84.2054 191° South 417 480 35,000  Level FlightAware ADS-B
Sun 08:32:54 AM 34.5873 -84.2193 191° South 417 480 35,000  Level FlightAware ADS-B
Sun 08:33:24 AM 34.5300 -84.2329 191° South 418 481 35,000 -100 Level FlightAware ADS-B
Sun 08:33:54 AM 34.4727 -84.2465 191° South 419 482 34,900  Descending FlightAware ADS-B
Sun 08:34:25 AM 34.4133 -84.2605 191° South 420 483 35,000 95 Climbing FlightAware ADS-B
Sun 08:34:57 AM 34.3537 -84.2748 191° South 420 483 35,000  Level FlightAware ADS-B
Sun 08:35:30 AM 34.2901 -84.2899 191° South 420 483 35,000  Level FlightAware ADS-B
Sun 08:36:10 AM 34.2133 -84.3081 191° South 420 483 35,000  Level FlightAware ADS-B
Sun 08:36:52 AM 34.1420 -84.3250 191° South 412 474 35,000  Level FlightAware ADS-B
Sun 08:37:19 AM 34.0809 -84.3390 191° South 421 484 35,000  Level FlightAware ADS-B
Sun 08:37:49 AM 34.0233 -84.3523 191° South 420 483 35,000  Level FlightAware ADS-B
Sun 08:38:22 AM 33.9615 -84.3668 191° South 420 483 35,000  Level FlightAware ADS-B
Sun 08:38:52 AM 33.9039 -84.3803 191° South 420 483 35,000  Level FlightAware ADS-B
Sun 08:39:23 AM 33.8461 -84.3937 191° South 419 482 35,000  Level FlightAware ADS-B
Sun 08:39:53 AM 33.7879 -84.4073 191° South 418 481 35,000  Level FlightAware ADS-B
Sun 08:40:24 AM 33.7295 -84.4209 191° South 417 480 35,000  Level FlightAware ADS-B
Sun 08:40:55 AM 33.6703 -84.4346 191° South 415 478 35,000 -98 Level FlightAware ADS-B
Sun 08:41:25 AM 33.6132 -84.4457 189° South 420 483 34,900 -130 Descending FlightAware ADS-B
Sun 08:41:41 AM 33.5830 -84.4492 186° South 424 488 34,900  Level FlightAware ADS-B
Sun 08:41:56 AM 33.5529 -84.4505 182° South 427 491 34,900  Level FlightAware ADS-B
Sun 08:42:27 AM 33.5000 -84.4500 180° South 422 486 34,900  Level FlightAware ADS-B
Sun 08:42:37 AM 33.4710 -84.4497 180° South 431 496 34,900  Level FlightAware ADS-B
Sun 08:43:12 AM 33.4090 -84.4490 179° South 432 497 34,900 80 Level FlightAware ADS-B
Sun 08:43:52 AM 33.3240 -84.4470 179° South 433 498 35,000 125 Climbing FlightAware ADS-B
Sun 08:44:00 AM 33.3054 -84.4466 179° South 432 497 35,000  Level FlightAware ADS-B
Sun 08:44:37 AM 33.2360 -84.4450 179° South 433 498 35,000  Level FlightAware ADS-B
Sun 08:45:32 AM 33.1270 -84.4430 179° South 432 497 35,000  Level FlightAware ADS-B
Sun 08:46:12 AM 33.0480 -84.4410 179° South 432 497 35,000  Level FlightAware ADS-B
Sun 08:46:52 AM 32.9770 -84.4390 179° South 431 496 35,000  Level FlightAware ADS-B
Sun 08:47:37 AM 32.8900 -84.4370 179° South 422 486 35,000  Level FlightAware ADS-B
Sun 08:48:17 AM 32.8030 -84.4350 179° South 420 483 35,000  Level FlightAware ADS-B
Sun 08:49:02 AM 32.7120 -84.4330 179° South 419 482 35,000 -75 Level FlightAware ADS-B
Sun 08:49:37 AM 32.6430 -84.4320 179° South 419 482 34,900 -71 Descending FlightAware ADS-B
Sun 08:50:27 AM 32.5420 -84.4290 179° South 420 483 34,900 38 Level FlightAware ADS-B
Sun 08:52:17 AM 32.3390 -84.4240 179° South 431 496 35,000 40 Climbing FlightAware ADS-B
Sun 08:52:57 AM 32.2710 -84.4210 178° South 431 496 35,000  Level FlightAware ADS-B
Sun 08:53:37 AM 32.2030 -84.4180 178° South 431 496 35,000  Level FlightAware ADS-B
Sun 08:54:17 AM 32.1360 -84.4150 178° South 431 496 35,000  Level FlightAware ADS-B
Sun 08:55:07 AM 32.0510 -84.4120 178° South 431 496 35,000  Level FlightAware ADS-B
Sun 08:55:47 AM 31.9830 -84.4090 178° South 431 496 35,000  Level FlightAware ADS-B
Sun 08:56:27 AM 31.9150 -84.4060 178° South 431 496 35,000  Level FlightAware ADS-B
Sun 08:57:07 AM 31.8480 -84.4040 179° South 431 496 35,000  Level FlightAware ADS-B
Sun 08:57:47 AM 31.7800 -84.4010 178° South 431 496 35,000  Level FlightAware ADS-B
Sun 08:58:37 AM 31.6950 -84.3970 178° South 431 496 35,000  Level FlightAware ADS-B
Sun 08:59:17 AM 31.6270 -84.3940 178° South 431 496 35,000  Level FlightAware ADS-B
Sun 08:59:57 AM 31.5600 -84.3920 179° South 431 496 35,000  Level FlightAware ADS-B
Sun 09:00:37 AM 31.4920 -84.3890 178° South 431 496 35,000  Level FlightAware ADS-B
Sun 09:01:17 AM 31.4240 -84.3860 178° South 431 496 35,000  Level FlightAware ADS-B
Sun 09:03:12 AM 30.9910 -84.3910 181° South 450 518 35,000  Level FlightAware ADS-B
Sun 09:03:57 AM 30.9060 -84.3870 178° South 450 518 35,000  Level FlightAware ADS-B
Sun 09:04:32 AM 30.8870 -84.3880 183° South 451 519 35,000  Level FlightAware ADS-B
Sun 09:05:17 AM 30.7300 -84.3840 179° South 452 520 35,000  Level FlightAware ADS-B
Sun 09:06:02 AM 30.6350 -84.3820 179° South 454 522 35,000  Level FlightAware ADS-B
Sun 09:06:42 AM 30.5490 -84.3680 172° South 471 542 35,000  Level FlightAware ADS-B
Sun 09:07:27 AM 30.4510 -84.3270 160° South 490 564 35,000  Level FlightAware ADS-B
Sun 09:08:12 AM 30.3610 -84.2680 151° Southeast 493 567 35,000  Level FlightAware ADS-B
Sun 09:08:52 AM 30.2820 -84.2150 150° Southeast 492 566 35,000  Level FlightAware ADS-B
Sun 09:09:37 AM 30.1930 -84.1570 151° Southeast 492 566 35,000 -71 Level FlightAware ADS-B
Sun 09:10:17 AM 30.1140 -84.1040 150° Southeast 493 567 34,900  Descending FlightAware ADS-B
Sun 09:10:57 AM 30.0330 -84.0510 150° Southeast 493 567 35,000 75 Climbing FlightAware ADS-B
Sun 09:11:37 AM 29.9550 -84.0000 150° Southeast 493 567 35,000  Level FlightAware ADS-B
Sun 09:12:17 AM 29.8850 -83.9540 150° Southeast 491 565 35,000  Level FlightAware ADS-B
Sun 09:13:47 AM 29.7010 -83.8330 150° Southeast 484 557 35,000  Level FlightAware ADS-B
Sun 09:14:57 AM 29.5620 -83.7430 151° Southeast 483 556 35,000  Level FlightAware ADS-B
Sun 09:16:07 AM 29.4240 -83.6540 151° Southeast 482 555 35,000  Level FlightAware ADS-B
Sun 09:17:22 AM 29.2760 -83.5580 150° Southeast 481 554 35,000  Level FlightAware ADS-B
Sun 09:18:37 AM 29.1280 -83.4630 151° Southeast 481 554 35,000  Level FlightAware ADS-B
Sun 09:19:22 AM 29.0390 -83.4060 151° Southeast 480 552 35,000  Level FlightAware ADS-B
Sun 09:20:07 AM 28.9510 -83.3490 150° Southeast 480 552 35,000  Level FlightAware ADS-B
Sun 09:20:47 AM 28.8700 -83.2980 151° Southeast 481 554 35,000  Level FlightAware ADS-B
Sun 09:21:27 AM 28.7920 -83.2480 151° Southeast 481 554 35,000  Level FlightAware ADS-B
Sun 09:22:12 AM 28.7020 -83.1920 151° Southeast 484 557 35,000 -71 Level FlightAware ADS-B
Sun 09:22:52 AM 28.6230 -83.1410 150° Southeast 493 567 34,900  Descending FlightAware ADS-B
Sun 09:23:32 AM 28.5440 -83.0920 151° Southeast 495 570 35,000 71 Climbing FlightAware ADS-B
Sun 09:24:17 AM 28.4540 -83.0350 151° Southeast 497 572 35,000  Level FlightAware ADS-B
Sun 09:24:57 AM 28.3720 -82.9830 151° Southeast 500 575 35,000  Level FlightAware ADS-B
Sun 09:25:42 AM 28.2790 -82.9250 151° Southeast 496 571 35,000  Level FlightAware ADS-B
Sun 09:26:22 AM 28.1980 -82.8740 151° Southeast 499 574 35,000  Level FlightAware ADS-B
Sun 09:27:07 AM 28.1060 -82.8170 151° Southeast 501 577 35,000  Level FlightAware ADS-B
Sun 09:27:47 AM 28.0230 -82.7660 152° Southeast 511 588 35,000  Level FlightAware ADS-B
Sun 09:28:27 AM 27.9400 -82.7140 151° Southeast 513 590 35,000  Level FlightAware ADS-B
Sun 09:29:12 AM 27.8460 -82.6550 151° Southeast 510 587 35,000  Level FlightAware ADS-B
Sun 09:29:52 AM 27.7650 -82.6000 149° Southeast 509 586 35,000  Level FlightAware ADS-B
Sun 09:30:37 AM 27.6730 -82.5380 149° Southeast 504 580 35,000  Level FlightAware ADS-B
Sun 09:31:17 AM 27.5900 -82.4840 150° Southeast 505 581 35,000  Level FlightAware ADS-B
Sun 09:31:57 AM 27.5090 -82.4300 149° Southeast 507 583 35,000  Level FlightAware ADS-B
Sun 09:32:42 AM 27.4080 -82.3630 150° Southeast 513 590 35,000  Level FlightAware ADS-B
Sun 09:33:22 AM 27.3270 -82.3100 150° Southeast 512 589 35,000  Level FlightAware ADS-B
Sun 09:34:02 AM 27.2450 -82.2560 150° Southeast 510 587 35,000  Level FlightAware ADS-B
Sun 09:34:47 AM 27.1550 -82.1970 150° Southeast 509 586 35,000  Level FlightAware ADS-B
Sun 09:35:27 AM 27.0700 -82.1420 150° Southeast 507 583 35,000 -71 Level FlightAware ADS-B
Sun 09:36:12 AM 26.9790 -82.0830 150° Southeast 508 585 34,900 -71 Descending FlightAware ADS-B
Sun 09:36:52 AM 26.8970 -82.0290 150° Southeast 509 586 34,900 71 Level FlightAware ADS-B
Sun 09:37:37 AM 26.8060 -81.9700 150° Southeast 508 585 35,000 71 Climbing FlightAware ADS-B
Sun 09:38:17 AM 26.7260 -81.9190 150° Southeast 508 585 35,000  Level FlightAware ADS-B
Sun 09:38:57 AM 26.6520 -81.8710 150° Southeast 501 577 35,000  Level FlightAware ADS-B
Sun 09:39:42 AM 26.5600 -81.8120 150° Southeast 501 577 35,000  Level FlightAware ADS-B
Sun 09:40:22 AM 26.4750 -81.7670 155° Southeast 500 575 35,000  Level FlightAware ADS-B
Sun 09:41:07 AM 26.3780 -81.7300 161° South 491 565 35,000  Level FlightAware ADS-B
Sun 09:41:47 AM 26.2910 -81.6980 162° South 490 564 35,000  Level FlightAware ADS-B
Sun 09:42:32 AM 26.1920 -81.6610 161° South 488 562 35,000  Level FlightAware ADS-B
Sun 09:43:12 AM 26.1060 -81.6290 162° South 489 563 35,000  Level FlightAware ADS-B
Sun 09:43:52 AM 26.0170 -81.5960 162° South 489 563 35,000 -71 Level FlightAware ADS-B
Sun 09:44:37 AM 25.9190 -81.5600 162° South 490 564 34,900  Descending FlightAware ADS-B
Sun 09:45:17 AM 25.8300 -81.5270 162° South 491 565 35,000 75 Climbing FlightAware ADS-B
Sun 09:45:57 AM 25.7420 -81.4950 162° South 489 563 35,000  Level FlightAware ADS-B
Sun 09:46:42 AM 25.6450 -81.4590 162° South 490 564 35,000 -71 Level FlightAware ADS-B
Sun 09:47:22 AM 25.5570 -81.4260 161° South 493 567 34,900  Descending FlightAware ADS-B
Sun 09:48:07 AM 25.4580 -81.3900 162° South 493 567 35,000 71 Climbing FlightAware ADS-B
Sun 09:48:47 AM 25.3690 -81.3580 162° South 491 565 35,000  Level FlightAware ADS-B
Sun 09:49:27 AM 25.2810 -81.3260 162° South 493 567 35,000  Level FlightAware ADS-B
Sun 09:50:12 AM 25.1820 -81.2890 161° South 492 566 35,000  Level FlightAware ADS-B
Sun 09:50:52 AM 25.0970 -81.2590 162° South 470 541 35,000  Level FlightAware ADS-B
Sun 09:51:52 AM 24.9710 -81.2580 180° South 439 505 35,000  Level FlightAware ADS-B
Sun 09:52:32 AM 24.8970 -81.2930 203° Southwest 439 505 35,000  Level FlightAware ADS-B
Sun 09:53:07 AM 24.8290 -81.3040 188° South 451 519 35,000  Level FlightAware ADS-B
Sun 09:53:57 AM 24.7200 -81.2740 166° South 495 570 35,000  Level FlightAware ADS-B
Sun 09:54:37 AM 24.6480 -81.2070 140° Southeast 511 588 35,000  Level FlightAware ADS-B
Sun 09:55:12 AM 24.6100 -81.1270 118° Southeast 520 598 35,000  Level FlightAware ADS-B
Sun 09:55:52 AM 24.5690 -81.0310 115° Southeast 519 597 35,000  Level FlightAware ADS-B
Sun 09:56:37 AM 24.4850 -80.9630 144° Southeast 490 564 35,000  Level FlightAware ADS-B
Sun 09:57:17 AM 24.3950 -80.9450 170° South 470 541 35,000  Level FlightAware ADS-B
Sun 09:58:02 AM 24.3060 -80.9650 192° South 438 504 35,000  Level FlightAware ADS-B
Sun 09:58:37 AM 24.2470 -81.0050 212° Southwest 424 488 35,000  Level FlightAware ADS-B
Sun 09:59:22 AM 24.1740 -81.0650 217° Southwest 429 494 35,000  Level FlightAware ADS-B
Sun 10:00:07 AM 24.1020 -81.1240 217° Southwest 429 494 35,000  Level FlightAware ADS-B
Sun 10:00:47 AM 24.0250 -81.1620 204° Southwest 463 533 35,000  Level FlightAware ADS-B
Sun 10:01:27 AM 23.9440 -81.1590 178° South 494 568 35,000  Level FlightAware ADS-B
Sun 10:02:12 AM 23.8470 -81.0900 147° Southeast 526 605 35,000 -71 Level FlightAware ADS-B
Sun 10:02:52 AM 23.7850 -81.0130 131° Southeast 517 595 34,900 -71 Descending FlightAware ADS-B
Sun 10:03:37 AM 23.7120 -80.9230 132° Southeast 514 592 34,900  Level FlightAware ADS-B
Sun 10:04:12 AM 23.6600 -80.8580 131° Southeast 514 592 34,900  Level FlightAware ADS-B
Sun 10:04:52 AM 23.6070 -80.7920 131° Southeast 514 592 34,900  Level FlightAware ADS-B
Sun 10:05:42 AM 23.5410 -80.7090 131° Southeast 514 592 34,900  Level FlightAware ADS-B
Sun 10:06:22 AM 23.4880 -80.6420 131° Southeast 514 592 34,900  Level FlightAware ADS-B
Sun 10:07:02 AM 23.4350 -80.5760 131° Southeast 514 592 34,900  Level FlightAware ADS-B
Sun 10:07:42 AM 23.3820 -80.5090 131° Southeast 514 592 34,900  Level FlightAware ADS-B
Sun 10:08:32 AM 23.3150 -80.4260 131° Southeast 514 592 34,900  Level FlightAware ADS-B
Sun 10:09:12 AM 23.2620 -80.3600 131° Southeast 514 592 34,900  Level FlightAware ADS-B
Sun 10:09:52 AM 23.2090 -80.2930 131° Southeast 514 592 34,900  Level FlightAware ADS-B
Sun 10:10:32 AM 23.1560 -80.2270 131° Southeast 514 592 34,900  Level FlightAware ADS-B
Sun 10:11:12 AM 23.1030 -80.1610 131° Southeast 514 592 34,900  Level FlightAware ADS-B
Sun 10:12:02 AM 23.0370 -80.0780 131° Southeast 514 592 34,900  Level FlightAware ADS-B
Sun 10:12:42 AM 22.9840 -80.0110 131° Southeast 514 592 34,900  Level FlightAware ADS-B
Sun 10:13:22 AM 22.9310 -79.9450 131° Southeast 514 592 34,900  Level FlightAware ADS-B
Sun 10:16:00 AM 22.7655 -79.6560 122° Southeast  Level Estimated
Sun 10:17:00 AM 22.7025 -79.5464 122° Southeast  Level Estimated
Sun 10:18:00 AM 22.6394 -79.4369 122° Southeast  Level Estimated
Sun 10:19:00 AM 22.5762 -79.3275 122° Southeast  Level Estimated
Sun 10:20:00 AM 22.5130 -79.2182 122° Southeast  Level Estimated
Sun 10:21:00 AM 22.4497 -79.1091 122° Southeast  Level Estimated
Sun 10:22:00 AM 22.3864 -79.0000 122° Southeast  Level Estimated
Sun 10:23:00 AM 22.3229 -78.8910 122° Southeast  Level Estimated
Sun 10:24:00 AM 22.2594 -78.7821 122° Southeast  Level Estimated
Sun 10:25:00 AM 22.1958 -78.6733 122° Southeast  Level Estimated
Sun 10:26:00 AM 22.1322 -78.5647 122° Southeast  Level Estimated
Sun 10:27:00 AM 22.0684 -78.4561 122° Southeast  Level Estimated
Sun 10:28:00 AM 22.0046 -78.3476 122° Southeast  Level Estimated
Sun 10:29:00 AM 21.9408 -78.2392 122° Southeast  Level Estimated
Sun 10:30:00 AM 21.8768 -78.1309 122° Southeast  Level Estimated
Sun 10:31:00 AM 21.8128 -78.0227 122° Southeast  Level Estimated
Sun 10:32:00 AM 21.7487 -77.9146 123° Southeast  Level Estimated
Sun 10:33:00 AM 21.6845 -77.8066 123° Southeast  Level Estimated
Sun 10:34:00 AM 21.6203 -77.6987 123° Southeast  Level Estimated
Sun 10:35:00 AM 21.5560 -77.5909 123° Southeast  Level Estimated
Sun 10:36:00 AM 21.4917 -77.4832 123° Southeast  Level Estimated
Sun 10:37:00 AM 21.4272 -77.3756 123° Southeast  Level Estimated
Sun 10:38:00 AM 21.3627 -77.2681 123° Southeast  Level Estimated
Sun 10:39:00 AM 21.2982 -77.1606 123° Southeast  Level Estimated
Sun 10:40:00 AM 21.2335 -77.0533 123° Southeast  Level Estimated
Sun 10:41:00 AM 21.1688 -76.9461 123° Southeast  Level Estimated
Sun 10:42:00 AM 21.1040 -76.8389 123° Southeast  Level Estimated
Sun 10:43:00 AM 21.0392 -76.7319 123° Southeast  Level Estimated
Sun 10:44:00 AM 20.9743 -76.6249 123° Southeast  Level Estimated
Sun 10:45:00 AM 20.9093 -76.5180 123° Southeast  Level Estimated
Sun 10:46:00 AM 20.8443 -76.4113 123° Southeast  Level Estimated
Sun 10:47:00 AM 20.7856 -76.3151 123° Southeast  Level Estimated
Sun 10:48:00 AM 20.7856 -76.3151 118° Southeast  Level Estimated
Sun 10:49:00 AM 20.7856 -76.3151 118° Southeast  Level Estimated
Sun 10:50:00 AM 20.7856 -76.3151 118° Southeast  Level Estimated
Sun 10:51:00 AM 20.7856 -76.3151 118° Southeast  Level Estimated
Sun 10:52:00 AM 20.7856 -76.3151 118° Southeast  Level Estimated
Sun 10:53:00 AM 20.7856 -76.3151 118° Southeast  Level Estimated
Sun 10:54:00 AM 20.7856 -76.3151 118° Southeast  Level Estimated
Sun 10:55:00 AM 20.7856 -76.3151 118° Southeast  Level Estimated
Sun 10:56:00 AM 20.7856 -76.3151 118° Southeast  Level Estimated
Sun 10:57:00 AM 20.7856 -76.3151 118° Southeast  Level Estimated
Sun 10:58:00 AM 20.7856 -76.3151 118° Southeast  Level Estimated
Sun 10:59:00 AM 20.7856 -76.3151 118° Southeast  Level Estimated
Sun 11:00:00 AM 20.7856 -76.3151 118° Southeast  Level Estimated
Sun 11:01:00 AM 20.7856 -76.3151 118° Southeast  Level Estimated
Sun 11:02:00 AM 20.7856 -76.3151 118° Southeast  Level Estimated
Sun 11:03:00 AM 20.7856 -76.3151 118° Southeast  Level Estimated
Sun 11:04:00 AM 20.7856 -76.3151 118° Southeast  Level Estimated
Sun 11:05:00 AM 20.7856 -76.3151 118° Southeast  Level Estimated
Sun 11:06:00 AM 20.7856 -76.3151 118° Southeast  Level Estimated
Sun 11:07:00 AM 20.7856 -76.3151 118° Southeast  Level Estimated
Sun 11:08:00 AM 20.7856 -76.3151 118° Southeast  Level Estimated
Sun 11:09:00 AM 20.7856 -76.3151 118° Southeast  Level Estimated
Sun 11:10:00 AM 20.7856 -76.3151 118° Southeast  Level Estimated

Login

Don't have an account? Register now (free) for customized features, flight alerts, and more!